sensor_id;sensor_type;location;lat;lon;timestamp;temperature;humidity
56268;DHT22;42175;46.930;9.532;2023-05-16T00:02:19;22.70;52.00
56268;DHT22;42175;46.930;9.532;2023-05-16T00:04:46;22.60;52.00
56268;DHT22;42175;46.930;9.532;2023-05-16T00:07:12;22.60;51.90
56268;DHT22;42175;46.930;9.532;2023-05-16T00:09:38;22.70;51.90
56268;DHT22;42175;46.930;9.532;2023-05-16T00:12:04;22.70;52.00
56268;DHT22;42175;46.930;9.532;2023-05-16T00:14:30;22.70;52.00
56268;DHT22;42175;46.930;9.532;2023-05-16T00:16:56;22.70;52.00
56268;DHT22;42175;46.930;9.532;2023-05-16T00:19:23;22.70;51.90
56268;DHT22;42175;46.930;9.532;2023-05-16T00:21:51;22.60;51.80
56268;DHT22;42175;46.930;9.532;2023-05-16T00:24:17;22.60;51.90
56268;DHT22;42175;46.930;9.532;2023-05-16T00:26:43;22.60;51.90
56268;DHT22;42175;46.930;9.532;2023-05-16T00:29:09;22.60;51.90
56268;DHT22;42175;46.930;9.532;2023-05-16T00:31:34;22.70;51.90
56268;DHT22;42175;46.930;9.532;2023-05-16T00:34:00;22.70;51.90
56268;DHT22;42175;46.930;9.532;2023-05-16T00:36:26;22.70;52.00
56268;DHT22;42175;46.930;9.532;2023-05-16T00:38:53;22.60;52.00
56268;DHT22;42175;46.930;9.532;2023-05-16T00:41:19;22.70;52.00
56268;DHT22;42175;46.930;9.532;2023-05-16T00:43:45;22.60;52.00
56268;DHT22;42175;46.930;9.532;2023-05-16T00:46:11;22.70;52.00
56268;DHT22;42175;46.930;9.532;2023-05-16T00:48:37;22.60;51.90
56268;DHT22;42175;46.930;9.532;2023-05-16T00:51:02;22.70;52.00
56268;DHT22;42175;46.930;9.532;2023-05-16T00:53:28;22.60;51.90
56268;DHT22;42175;46.930;9.532;2023-05-16T00:55:55;22.60;51.90
56268;DHT22;42175;46.930;9.532;2023-05-16T00:58:22;22.70;52.60
56268;DHT22;42175;46.930;9.532;2023-05-16T01:00:49;22.70;52.00
56268;DHT22;42175;46.930;9.532;2023-05-16T01:03:15;22.70;52.00
56268;DHT22;42175;46.930;9.532;2023-05-16T01:05:40;22.70;52.00
56268;DHT22;42175;46.930;9.532;2023-05-16T01:08:06;22.70;51.90
56268;DHT22;42175;46.930;9.532;2023-05-16T01:10:40;22.60;51.90
56268;DHT22;42175;46.930;9.532;2023-05-16T01:13:15;22.70;52.00
56268;DHT22;42175;46.930;9.532;2023-05-16T01:15:48;22.60;51.90
56268;DHT22;42175;46.930;9.532;2023-05-16T01:18:23;22.60;51.90
56268;DHT22;42175;46.930;9.532;2023-05-16T01:20:55;22.70;51.90
56268;DHT22;42175;46.930;9.532;2023-05-16T01:26:16;22.60;51.80
56268;DHT22;42175;46.930;9.532;2023-05-16T01:28:46;22.60;51.80
56268;DHT22;42175;46.930;9.532;2023-05-16T01:31:12;22.60;51.80
56268;DHT22;42175;46.930;9.532;2023-05-16T01:33:38;22.70;51.80
56268;DHT22;42175;46.930;9.532;2023-05-16T01:41:16;22.60;51.70
56268;DHT22;42175;46.930;9.532;2023-05-16T01:43:47;22.70;51.70
56268;DHT22;42175;46.930;9.532;2023-05-16T01:46:18;22.60;51.60
56268;DHT22;42175;46.930;9.532;2023-05-16T01:51:37;22.70;51.70
56268;DHT22;42175;46.930;9.532;2023-05-16T01:54:05;22.70;51.60
56268;DHT22;42175;46.930;9.532;2023-05-16T01:56:36;22.70;51.60
56268;DHT22;42175;46.930;9.532;2023-05-16T01:59:03;22.70;51.70
56268;DHT22;42175;46.930;9.532;2023-05-16T02:01:30;22.60;51.60
56268;DHT22;42175;46.930;9.532;2023-05-16T02:03:57;22.60;51.60
56268;DHT22;42175;46.930;9.532;2023-05-16T02:06:23;22.60;51.60
56268;DHT22;42175;46.930;9.532;2023-05-16T02:08:50;22.60;51.60
56268;DHT22;42175;46.930;9.532;2023-05-16T02:11:16;22.70;51.70
56268;DHT22;42175;46.930;9.532;2023-05-16T02:13:42;22.70;51.60
56268;DHT22;42175;46.930;9.532;2023-05-16T02:16:10;22.70;51.60
56268;DHT22;42175;46.930;9.532;2023-05-16T02:18:35;22.70;51.60
56268;DHT22;42175;46.930;9.532;2023-05-16T02:21:01;22.60;51.50
56268;DHT22;42175;46.930;9.532;2023-05-16T02:23:27;22.60;51.50
56268;DHT22;42175;46.930;9.532;2023-05-16T02:25:52;22.60;51.50
56268;DHT22;42175;46.930;9.532;2023-05-16T02:28:18;22.60;51.50
56268;DHT22;42175;46.930;9.532;2023-05-16T02:30:44;22.70;51.50
56268;DHT22;42175;46.930;9.532;2023-05-16T02:33:10;22.70;51.50
56268;DHT22;42175;46.930;9.532;2023-05-16T02:35:36;22.70;51.40
56268;DHT22;42175;46.930;9.532;2023-05-16T02:38:02;22.70;51.40
56268;DHT22;42175;46.930;9.532;2023-05-16T02:40:27;22.60;51.40
56268;DHT22;42175;46.930;9.532;2023-05-16T02:42:53;22.60;51.30
56268;DHT22;42175;46.930;9.532;2023-05-16T02:45:19;22.70;51.40
56268;DHT22;42175;46.930;9.532;2023-05-16T02:47:45;22.60;51.30
56268;DHT22;42175;46.930;9.532;2023-05-16T02:50:10;22.60;51.20
56268;DHT22;42175;46.930;9.532;2023-05-16T02:52:36;22.60;51.30
56268;DHT22;42175;46.930;9.532;2023-05-16T02:55:02;22.60;51.20
56268;DHT22;42175;46.930;9.532;2023-05-16T02:57:27;22.60;51.20
56268;DHT22;42175;46.930;9.532;2023-05-16T02:59:53;22.60;51.20
56268;DHT22;42175;46.930;9.532;2023-05-16T03:02:19;22.60;51.50
56268;DHT22;42175;46.930;9.532;2023-05-16T03:04:44;22.60;51.20
56268;DHT22;42175;46.930;9.532;2023-05-16T03:07:10;22.60;51.20
56268;DHT22;42175;46.930;9.532;2023-05-16T03:09:36;22.60;51.20
56268;DHT22;42175;46.930;9.532;2023-05-16T03:12:02;22.60;51.20
56268;DHT22;42175;46.930;9.532;2023-05-16T03:14:27;22.60;51.20
56268;DHT22;42175;46.930;9.532;2023-05-16T03:16:53;22.60;51.20
56268;DHT22;42175;46.930;9.532;2023-05-16T03:19:19;22.60;51.20
56268;DHT22;42175;46.930;9.532;2023-05-16T03:21:44;22.60;51.20
56268;DHT22;42175;46.930;9.532;2023-05-16T03:24:10;22.60;51.20
56268;DHT22;42175;46.930;9.532;2023-05-16T03:26:36;22.70;51.20
56268;DHT22;42175;46.930;9.532;2023-05-16T03:29:01;22.60;51.20
56268;DHT22;42175;46.930;9.532;2023-05-16T03:31:27;22.60;51.30
56268;DHT22;42175;46.930;9.532;2023-05-16T03:33:53;22.60;51.30
56268;DHT22;42175;46.930;9.532;2023-05-16T03:36:20;22.60;51.30
56268;DHT22;42175;46.930;9.532;2023-05-16T03:38:46;22.70;51.40
56268;DHT22;42175;46.930;9.532;2023-05-16T03:41:12;22.70;51.30
56268;DHT22;42175;46.930;9.532;2023-05-16T03:43:38;22.60;51.40
56268;DHT22;42175;46.930;9.532;2023-05-16T03:46:04;22.60;51.40
56268;DHT22;42175;46.930;9.532;2023-05-16T03:48:30;22.60;51.40
56268;DHT22;42175;46.930;9.532;2023-05-16T03:50:56;22.60;51.40
56268;DHT22;42175;46.930;9.532;2023-05-16T03:53:22;22.60;51.60
56268;DHT22;42175;46.930;9.532;2023-05-16T03:55:47;22.60;51.60
56268;DHT22;42175;46.930;9.532;2023-05-16T03:58:13;22.60;51.70
56268;DHT22;42175;46.930;9.532;2023-05-16T04:00:39;22.60;51.60
56268;DHT22;42175;46.930;9.532;2023-05-16T04:03:04;22.60;51.60
56268;DHT22;42175;46.930;9.532;2023-05-16T04:05:30;22.60;51.60
56268;DHT22;42175;46.930;9.532;2023-05-16T04:07:56;22.60;51.60
56268;DHT22;42175;46.930;9.532;2023-05-16T04:10:22;22.60;51.60
56268;DHT22;42175;46.930;9.532;2023-05-16T04:12:49;22.60;51.70
56268;DHT22;42175;46.930;9.532;2023-05-16T04:15:14;22.60;51.90
56268;DHT22;42175;46.930;9.532;2023-05-16T04:17:40;22.60;51.70
56268;DHT22;42175;46.930;9.532;2023-05-16T04:20:06;22.60;51.80
56268;DHT22;42175;46.930;9.532;2023-05-16T04:22:32;22.60;51.80
56268;DHT22;42175;46.930;9.532;2023-05-16T04:24:57;22.60;51.80
56268;DHT22;42175;46.930;9.532;2023-05-16T04:27:23;22.60;51.80
56268;DHT22;42175;46.930;9.532;2023-05-16T04:29:49;22.60;51.80
56268;DHT22;42175;46.930;9.532;2023-05-16T04:32:15;22.60;51.70
56268;DHT22;42175;46.930;9.532;2023-05-16T04:34:41;22.60;51.80
56268;DHT22;42175;46.930;9.532;2023-05-16T04:37:08;22.60;51.90
56268;DHT22;42175;46.930;9.532;2023-05-16T04:39:35;22.60;51.90
56268;DHT22;42175;46.930;9.532;2023-05-16T04:42:01;22.60;51.80
56268;DHT22;42175;46.930;9.532;2023-05-16T04:44:28;22.60;51.70
56268;DHT22;42175;46.930;9.532;2023-05-16T04:46:54;22.60;51.80
56268;DHT22;42175;46.930;9.532;2023-05-16T04:49:20;22.60;51.80
56268;DHT22;42175;46.930;9.532;2023-05-16T04:51:47;22.60;51.60
56268;DHT22;42175;46.930;9.532;2023-05-16T04:54:13;22.60;51.70
56268;DHT22;42175;46.930;9.532;2023-05-16T04:56:39;22.60;51.60
56268;DHT22;42175;46.930;9.532;2023-05-16T04:59:05;22.60;51.50
56268;DHT22;42175;46.930;9.532;2023-05-16T05:01:31;22.60;51.80
56268;DHT22;42175;46.930;9.532;2023-05-16T05:03:57;22.60;51.60
56268;DHT22;42175;46.930;9.532;2023-05-16T05:06:22;22.60;51.40
56268;DHT22;42175;46.930;9.532;2023-05-16T05:08:48;22.60;51.40
56268;DHT22;42175;46.930;9.532;2023-05-16T05:11:14;22.60;51.30
56268;DHT22;42175;46.930;9.532;2023-05-16T05:13:40;22.60;51.20
56268;DHT22;42175;46.930;9.532;2023-05-16T05:16:05;22.60;51.10
56268;DHT22;42175;46.930;9.532;2023-05-16T05:18:32;22.50;50.90
56268;DHT22;42175;46.930;9.532;2023-05-16T05:20:58;22.60;51.30
56268;DHT22;42175;46.930;9.532;2023-05-16T05:23:24;22.60;51.00
56268;DHT22;42175;46.930;9.532;2023-05-16T05:25:50;22.60;51.40
56268;DHT22;42175;46.930;9.532;2023-05-16T05:28:16;22.60;52.00
56268;DHT22;42175;46.930;9.532;2023-05-16T05:30:41;22.60;51.80
56268;DHT22;42175;46.930;9.532;2023-05-16T05:33:07;22.60;51.70
56268;DHT22;42175;46.930;9.532;2023-05-16T05:35:33;22.60;51.60
56268;DHT22;42175;46.930;9.532;2023-05-16T05:37:58;22.60;51.50
56268;DHT22;42175;46.930;9.532;2023-05-16T05:40:24;22.60;51.70
56268;DHT22;42175;46.930;9.532;2023-05-16T05:42:50;22.60;51.60
56268;DHT22;42175;46.930;9.532;2023-05-16T05:45:16;22.70;51.80
56268;DHT22;42175;46.930;9.532;2023-05-16T05:47:42;22.60;51.80
56268;DHT22;42175;46.930;9.532;2023-05-16T05:50:09;22.60;52.00
56268;DHT22;42175;46.930;9.532;2023-05-16T05:52:36;22.60;51.70
56268;DHT22;42175;46.930;9.532;2023-05-16T05:55:02;22.60;51.70
56268;DHT22;42175;46.930;9.532;2023-05-16T05:57:28;22.60;51.70
56268;DHT22;42175;46.930;9.532;2023-05-16T05:59:54;22.60;51.80
56268;DHT22;42175;46.930;9.532;2023-05-16T06:02:20;22.60;51.80
56268;DHT22;42175;46.930;9.532;2023-05-16T06:04:45;22.60;51.60
56268;DHT22;42175;46.930;9.532;2023-05-16T06:07:11;22.70;51.70
56268;DHT22;42175;46.930;9.532;2023-05-16T06:09:37;22.60;51.70
56268;DHT22;42175;46.930;9.532;2023-05-16T06:12:03;22.70;51.70
56268;DHT22;42175;46.930;9.532;2023-05-16T06:14:29;22.60;51.60
56268;DHT22;42175;46.930;9.532;2023-05-16T06:16:55;22.60;51.60
56268;DHT22;42175;46.930;9.532;2023-05-16T06:19:21;22.60;51.50
56268;DHT22;42175;46.930;9.532;2023-05-16T06:21:47;22.60;51.50
56268;DHT22;42175;46.930;9.532;2023-05-16T06:24:12;22.60;51.40
56268;DHT22;42175;46.930;9.532;2023-05-16T06:26:38;22.60;51.40
56268;DHT22;42175;46.930;9.532;2023-05-16T06:29:04;22.60;51.30
56268;DHT22;42175;46.930;9.532;2023-05-16T06:31:30;22.60;51.30
56268;DHT22;42175;46.930;9.532;2023-05-16T06:33:56;22.60;51.80
56268;DHT22;42175;46.930;9.532;2023-05-16T06:36:22;22.60;51.20
56268;DHT22;42175;46.930;9.532;2023-05-16T06:38:48;22.50;51.10
56268;DHT22;42175;46.930;9.532;2023-05-16T06:41:15;22.60;51.20
56268;DHT22;42175;46.930;9.532;2023-05-16T06:43:40;22.60;51.10
56268;DHT22;42175;46.930;9.532;2023-05-16T06:46:06;22.60;51.00
56268;DHT22;42175;46.930;9.532;2023-05-16T06:48:32;22.60;50.90
56268;DHT22;42175;46.930;9.532;2023-05-16T06:50:57;22.60;50.90
56268;DHT22;42175;46.930;9.532;2023-05-16T06:53:23;22.60;50.90
56268;DHT22;42175;46.930;9.532;2023-05-16T06:55:49;22.50;51.00
56268;DHT22;42175;46.930;9.532;2023-05-16T06:58:15;22.60;51.40
56268;DHT22;42175;46.930;9.532;2023-05-16T07:00:41;22.60;51.40
56268;DHT22;42175;46.930;9.532;2023-05-16T07:03:08;22.50;50.60
56268;DHT22;42175;46.930;9.532;2023-05-16T07:05:34;22.50;50.40
56268;DHT22;42175;46.930;9.532;2023-05-16T07:07:59;22.50;50.40
56268;DHT22;42175;46.930;9.532;2023-05-16T07:10:25;22.50;50.40
56268;DHT22;42175;46.930;9.532;2023-05-16T07:12:52;22.50;50.30
56268;DHT22;42175;46.930;9.532;2023-05-16T07:15:17;22.50;50.30
56268;DHT22;42175;46.930;9.532;2023-05-16T07:17:43;22.60;50.40
56268;DHT22;42175;46.930;9.532;2023-05-16T07:20:09;22.50;50.30
56268;DHT22;42175;46.930;9.532;2023-05-16T07:22:38;22.60;50.30
56268;DHT22;42175;46.930;9.532;2023-05-16T07:25:05;22.60;50.10
56268;DHT22;42175;46.930;9.532;2023-05-16T07:27:30;22.50;50.00
56268;DHT22;42175;46.930;9.532;2023-05-16T07:29:57;22.50;49.90
56268;DHT22;42175;46.930;9.532;2023-05-16T07:32:22;22.50;50.00
56268;DHT22;42175;46.930;9.532;2023-05-16T07:34:48;22.50;49.90
56268;DHT22;42175;46.930;9.532;2023-05-16T07:37:14;22.50;49.90
56268;DHT22;42175;46.930;9.532;2023-05-16T07:39:41;22.50;49.90
56268;DHT22;42175;46.930;9.532;2023-05-16T07:42:08;22.50;50.00
56268;DHT22;42175;46.930;9.532;2023-05-16T07:44:34;22.50;49.90
56268;DHT22;42175;46.930;9.532;2023-05-16T07:47:00;22.50;49.50
56268;DHT22;42175;46.930;9.532;2023-05-16T07:49:26;22.50;49.30
56268;DHT22;42175;46.930;9.532;2023-05-16T07:51:52;22.50;49.10
56268;DHT22;42175;46.930;9.532;2023-05-16T07:54:17;22.50;49.10
56268;DHT22;42175;46.930;9.532;2023-05-16T07:56:43;22.50;49.10
56268;DHT22;42175;46.930;9.532;2023-05-16T07:59:09;22.50;49.20
56268;DHT22;42175;46.930;9.532;2023-05-16T08:01:35;22.50;49.30
56268;DHT22;42175;46.930;9.532;2023-05-16T08:04:01;22.50;49.20
56268;DHT22;42175;46.930;9.532;2023-05-16T08:06:26;22.50;49.00
56268;DHT22;42175;46.930;9.532;2023-05-16T08:08:52;22.40;48.70
56268;DHT22;42175;46.930;9.532;2023-05-16T08:11:18;22.40;48.80
56268;DHT22;42175;46.930;9.532;2023-05-16T08:13:48;22.40;48.90
56268;DHT22;42175;46.930;9.532;2023-05-16T08:16:14;22.40;48.90
56268;DHT22;42175;46.930;9.532;2023-05-16T08:18:40;22.40;48.90
56268;DHT22;42175;46.930;9.532;2023-05-16T08:21:07;22.40;48.80
56268;DHT22;42175;46.930;9.532;2023-05-16T08:23:33;22.40;48.80
56268;DHT22;42175;46.930;9.532;2023-05-16T08:26:01;22.40;48.60
56268;DHT22;42175;46.930;9.532;2023-05-16T08:28:28;22.40;48.60
56268;DHT22;42175;46.930;9.532;2023-05-16T08:30:53;22.40;48.60
56268;DHT22;42175;46.930;9.532;2023-05-16T08:33:19;22.40;48.60
56268;DHT22;42175;46.930;9.532;2023-05-16T08:35:45;22.40;48.60
56268;DHT22;42175;46.930;9.532;2023-05-16T08:38:11;22.40;48.70
56268;DHT22;42175;46.930;9.532;2023-05-16T08:40:37;22.40;48.60
56268;DHT22;42175;46.930;9.532;2023-05-16T08:43:03;22.40;48.60
56268;DHT22;42175;46.930;9.532;2023-05-16T08:45:30;22.40;48.50
56268;DHT22;42175;46.930;9.532;2023-05-16T08:47:56;22.40;48.40
56268;DHT22;42175;46.930;9.532;2023-05-16T08:50:25;22.40;48.50
56268;DHT22;42175;46.930;9.532;2023-05-16T08:52:53;22.40;48.50
56268;DHT22;42175;46.930;9.532;2023-05-16T08:55:20;22.40;48.60
56268;DHT22;42175;46.930;9.532;2023-05-16T08:57:49;22.40;48.60
56268;DHT22;42175;46.930;9.532;2023-05-16T09:00:17;22.40;48.60
56268;DHT22;42175;46.930;9.532;2023-05-16T09:02:44;22.40;48.60
56268;DHT22;42175;46.930;9.532;2023-05-16T09:05:13;22.40;48.50
56268;DHT22;42175;46.930;9.532;2023-05-16T09:07:40;22.40;48.50
56268;DHT22;42175;46.930;9.532;2023-05-16T09:10:06;22.40;48.50
56268;DHT22;42175;46.930;9.532;2023-05-16T09:12:33;22.40;48.50
56268;DHT22;42175;46.930;9.532;2023-05-16T09:15:03;22.40;48.60
56268;DHT22;42175;46.930;9.532;2023-05-16T09:17:43;22.40;48.50
56268;DHT22;42175;46.930;9.532;2023-05-16T09:20:10;22.40;48.60
56268;DHT22;42175;46.930;9.532;2023-05-16T09:22:37;22.40;48.60
56268;DHT22;42175;46.930;9.532;2023-05-16T09:25:03;22.40;48.50
56268;DHT22;42175;46.930;9.532;2023-05-16T09:27:30;22.40;48.50
56268;DHT22;42175;46.930;9.532;2023-05-16T09:29:57;22.40;48.60
56268;DHT22;42175;46.930;9.532;2023-05-16T09:32:24;22.40;48.60
56268;DHT22;42175;46.930;9.532;2023-05-16T09:34:53;22.40;48.80
56268;DHT22;42175;46.930;9.532;2023-05-16T09:37:21;22.40;48.80
56268;DHT22;42175;46.930;9.532;2023-05-16T09:39:51;22.40;48.50
56268;DHT22;42175;46.930;9.532;2023-05-16T09:42:19;22.40;48.40
56268;DHT22;42175;46.930;9.532;2023-05-16T09:44:50;22.40;48.20
56268;DHT22;42175;46.930;9.532;2023-05-16T09:47:18;22.40;48.10
56268;DHT22;42175;46.930;9.532;2023-05-16T09:49:44;22.40;48.10
56268;DHT22;42175;46.930;9.532;2023-05-16T09:52:12;22.30;48.10
56268;DHT22;42175;46.930;9.532;2023-05-16T09:54:38;22.40;48.10
56268;DHT22;42175;46.930;9.532;2023-05-16T09:57:03;22.30;48.00
56268;DHT22;42175;46.930;9.532;2023-05-16T09:59:30;22.30;48.10
56268;DHT22;42175;46.930;9.532;2023-05-16T10:01:57;22.40;48.10
56268;DHT22;42175;46.930;9.532;2023-05-16T10:04:25;22.40;48.00
56268;DHT22;42175;46.930;9.532;2023-05-16T10:06:51;22.40;48.00
56268;DHT22;42175;46.930;9.532;2023-05-16T10:09:18;22.30;48.00
56268;DHT22;42175;46.930;9.532;2023-05-16T10:11:46;22.40;48.10
56268;DHT22;42175;46.930;9.532;2023-05-16T10:14:13;22.40;48.00
56268;DHT22;42175;46.930;9.532;2023-05-16T10:16:43;22.40;48.00
56268;DHT22;42175;46.930;9.532;2023-05-16T10:19:11;22.40;48.20
56268;DHT22;42175;46.930;9.532;2023-05-16T10:21:39;22.40;48.80
56268;DHT22;42175;46.930;9.532;2023-05-16T10:24:06;22.30;48.00
56268;DHT22;42175;46.930;9.532;2023-05-16T10:26:37;22.40;48.10
56268;DHT22;42175;46.930;9.532;2023-05-16T10:29:03;22.30;48.20
56268;DHT22;42175;46.930;9.532;2023-05-16T10:31:29;22.30;48.10
56268;DHT22;42175;46.930;9.532;2023-05-16T10:33:56;22.30;48.00
56268;DHT22;42175;46.930;9.532;2023-05-16T10:36:22;22.30;47.90
56268;DHT22;42175;46.930;9.532;2023-05-16T10:38:49;22.30;47.90
56268;DHT22;42175;46.930;9.532;2023-05-16T10:41:16;22.30;47.90
56268;DHT22;42175;46.930;9.532;2023-05-16T10:43:55;22.30;48.00
56268;DHT22;42175;46.930;9.532;2023-05-16T10:46:23;22.30;48.00
56268;DHT22;42175;46.930;9.532;2023-05-16T10:48:49;22.30;48.00
56268;DHT22;42175;46.930;9.532;2023-05-16T10:53:47;22.30;48.00
56268;DHT22;42175;46.930;9.532;2023-05-16T10:56:22;22.30;48.00
56268;DHT22;42175;46.930;9.532;2023-05-16T10:58:48;22.30;48.00
56268;DHT22;42175;46.930;9.532;2023-05-16T11:01:27;22.30;48.00
56268;DHT22;42175;46.930;9.532;2023-05-16T11:19:54;22.40;48.20
56268;DHT22;42175;46.930;9.532;2023-05-16T11:22:27;22.40;48.00
56268;DHT22;42175;46.930;9.532;2023-05-16T11:25:04;22.40;47.90
56268;DHT22;42175;46.930;9.532;2023-05-16T11:27:48;22.40;48.00
56268;DHT22;42175;46.930;9.532;2023-05-16T11:30:17;22.40;48.00
56268;DHT22;42175;46.930;9.532;2023-05-16T11:32:46;22.40;48.60
56268;DHT22;42175;46.930;9.532;2023-05-16T11:35:16;22.40;47.90
56268;DHT22;42175;46.930;9.532;2023-05-16T11:37:43;22.40;47.80
56268;DHT22;42175;46.930;9.532;2023-05-16T11:40:11;22.30;47.70
56268;DHT22;42175;46.930;9.532;2023-05-16T11:42:46;22.40;47.80
56268;DHT22;42175;46.930;9.532;2023-05-16T11:45:17;22.40;47.80
56268;DHT22;42175;46.930;9.532;2023-05-16T11:47:45;22.40;47.90
56268;DHT22;42175;46.930;9.532;2023-05-16T11:50:16;22.40;47.90
56268;DHT22;42175;46.930;9.532;2023-05-16T11:52:44;22.40;47.90
56268;DHT22;42175;46.930;9.532;2023-05-16T11:55:11;22.40;47.90
56268;DHT22;42175;46.930;9.532;2023-05-16T11:57:38;22.40;48.00
56268;DHT22;42175;46.930;9.532;2023-05-16T12:00:14;22.40;48.00
56268;DHT22;42175;46.930;9.532;2023-05-16T12:02:45;22.40;48.00
56268;DHT22;42175;46.930;9.532;2023-05-16T12:05:12;22.40;48.00
56268;DHT22;42175;46.930;9.532;2023-05-16T12:07:39;22.40;48.00
56268;DHT22;42175;46.930;9.532;2023-05-16T12:10:10;22.40;48.10
56268;DHT22;42175;46.930;9.532;2023-05-16T12:12:38;22.40;48.10
56268;DHT22;42175;46.930;9.532;2023-05-16T12:15:06;22.40;48.20
56268;DHT22;42175;46.930;9.532;2023-05-16T12:17:33;22.40;48.30
56268;DHT22;42175;46.930;9.532;2023-05-16T12:20:00;22.30;48.30
56268;DHT22;42175;46.930;9.532;2023-05-16T12:22:26;22.30;48.20
56268;DHT22;42175;46.930;9.532;2023-05-16T12:24:52;22.30;48.30
56268;DHT22;42175;46.930;9.532;2023-05-16T12:27:22;22.30;48.20
56268;DHT22;42175;46.930;9.532;2023-05-16T12:29:49;22.40;48.30
56268;DHT22;42175;46.930;9.532;2023-05-16T12:32:17;22.30;48.30
56268;DHT22;42175;46.930;9.532;2023-05-16T12:34:51;22.30;48.20
56268;DHT22;42175;46.930;9.532;2023-05-16T12:37:18;22.40;48.30
56268;DHT22;42175;46.930;9.532;2023-05-16T12:39:45;22.30;48.30
56268;DHT22;42175;46.930;9.532;2023-05-16T12:42:13;22.40;48.30
56268;DHT22;42175;46.930;9.532;2023-05-16T12:44:39;22.30;48.20
56268;DHT22;42175;46.930;9.532;2023-05-16T12:47:14;22.30;48.20
56268;DHT22;42175;46.930;9.532;2023-05-16T12:49:44;22.30;48.10
56268;DHT22;42175;46.930;9.532;2023-05-16T12:52:17;22.30;48.20
56268;DHT22;42175;46.930;9.532;2023-05-16T12:54:44;22.30;48.20
56268;DHT22;42175;46.930;9.532;2023-05-16T12:57:10;22.30;48.40
56268;DHT22;42175;46.930;9.532;2023-05-16T12:59:36;22.30;48.40
56268;DHT22;42175;46.930;9.532;2023-05-16T13:02:02;22.30;48.40
56268;DHT22;42175;46.930;9.532;2023-05-16T13:04:29;22.30;48.40
56268;DHT22;42175;46.930;9.532;2023-05-16T13:06:55;22.30;48.40
56268;DHT22;42175;46.930;9.532;2023-05-16T13:09:21;22.30;48.30
56268;DHT22;42175;46.930;9.532;2023-05-16T13:11:48;22.30;48.30
56268;DHT22;42175;46.930;9.532;2023-05-16T13:14:15;22.30;48.30
56268;DHT22;42175;46.930;9.532;2023-05-16T13:16:42;22.30;48.40
56268;DHT22;42175;46.930;9.532;2023-05-16T13:19:09;22.40;48.40
56268;DHT22;42175;46.930;9.532;2023-05-16T13:21:35;22.40;48.40
56268;DHT22;42175;46.930;9.532;2023-05-16T13:24:01;22.30;48.30
56268;DHT22;42175;46.930;9.532;2023-05-16T13:26:26;22.30;48.30
56268;DHT22;42175;46.930;9.532;2023-05-16T13:28:52;22.30;48.20
56268;DHT22;42175;46.930;9.532;2023-05-16T13:31:20;22.30;48.20
56268;DHT22;42175;46.930;9.532;2023-05-16T13:33:47;22.30;48.40
56268;DHT22;42175;46.930;9.532;2023-05-16T13:36:13;22.30;48.50
56268;DHT22;42175;46.930;9.532;2023-05-16T13:38:39;22.30;48.50
56268;DHT22;42175;46.930;9.532;2023-05-16T13:41:06;22.30;48.50
56268;DHT22;42175;46.930;9.532;2023-05-16T13:43:31;22.30;48.30
56268;DHT22;42175;46.930;9.532;2023-05-16T13:45:57;22.30;48.10
56268;DHT22;42175;46.930;9.532;2023-05-16T13:48:23;22.30;48.10
56268;DHT22;42175;46.930;9.532;2023-05-16T13:50:49;22.30;48.20
56268;DHT22;42175;46.930;9.532;2023-05-16T13:53:16;22.30;48.40
56268;DHT22;42175;46.930;9.532;2023-05-16T13:55:43;22.30;48.30
56268;DHT22;42175;46.930;9.532;2023-05-16T13:58:08;22.40;48.30
56268;DHT22;42175;46.930;9.532;2023-05-16T14:00:34;22.40;48.40
56268;DHT22;42175;46.930;9.532;2023-05-16T14:03:00;22.40;48.30
56268;DHT22;42175;46.930;9.532;2023-05-16T14:05:26;22.40;48.30
56268;DHT22;42175;46.930;9.532;2023-05-16T14:07:52;22.40;48.60
56268;DHT22;42175;46.930;9.532;2023-05-16T14:10:17;22.40;48.60
56268;DHT22;42175;46.930;9.532;2023-05-16T14:12:43;22.30;48.50
56268;DHT22;42175;46.930;9.532;2023-05-16T14:15:09;22.40;48.50
56268;DHT22;42175;46.930;9.532;2023-05-16T14:17:35;22.40;48.40
56268;DHT22;42175;46.930;9.532;2023-05-16T14:20:01;22.40;48.30
56268;DHT22;42175;46.930;9.532;2023-05-16T14:22:28;22.40;48.40
56268;DHT22;42175;46.930;9.532;2023-05-16T14:24:53;22.40;48.40
56268;DHT22;42175;46.930;9.532;2023-05-16T14:27:19;22.40;48.30
56268;DHT22;42175;46.930;9.532;2023-05-16T14:29:45;22.40;48.40
56268;DHT22;42175;46.930;9.532;2023-05-16T14:32:13;22.40;48.50
56268;DHT22;42175;46.930;9.532;2023-05-16T14:34:39;22.40;48.30
56268;DHT22;42175;46.930;9.532;2023-05-16T14:37:05;22.40;48.20
56268;DHT22;42175;46.930;9.532;2023-05-16T14:39:31;22.40;48.40
56268;DHT22;42175;46.930;9.532;2023-05-16T14:41:56;22.40;48.40
56268;DHT22;42175;46.930;9.532;2023-05-16T14:44:22;22.40;48.00
56268;DHT22;42175;46.930;9.532;2023-05-16T14:46:49;22.40;48.10
56268;DHT22;42175;46.930;9.532;2023-05-16T14:49:16;22.40;47.90
56268;DHT22;42175;46.930;9.532;2023-05-16T14:51:41;22.30;47.90
56268;DHT22;42175;46.930;9.532;2023-05-16T14:54:09;22.30;47.90
56268;DHT22;42175;46.930;9.532;2023-05-16T14:56:35;22.40;47.90
56268;DHT22;42175;46.930;9.532;2023-05-16T14:59:01;22.40;48.00
56268;DHT22;42175;46.930;9.532;2023-05-16T15:01:26;22.40;48.20
56268;DHT22;42175;46.930;9.532;2023-05-16T15:03:52;22.40;48.10
56268;DHT22;42175;46.930;9.532;2023-05-16T15:06:18;22.30;48.10
56268;DHT22;42175;46.930;9.532;2023-05-16T15:08:43;22.30;48.00
56268;DHT22;42175;46.930;9.532;2023-05-16T15:11:09;22.40;48.20
56268;DHT22;42175;46.930;9.532;2023-05-16T15:13:35;22.30;48.30
56268;DHT22;42175;46.930;9.532;2023-05-16T15:16:01;22.40;48.30
56268;DHT22;42175;46.930;9.532;2023-05-16T15:18:28;22.40;48.10
56268;DHT22;42175;46.930;9.532;2023-05-16T15:20:54;22.40;48.00
56268;DHT22;42175;46.930;9.532;2023-05-16T15:23:19;22.30;47.90
56268;DHT22;42175;46.930;9.532;2023-05-16T15:25:45;22.30;48.00
56268;DHT22;42175;46.930;9.532;2023-05-16T15:28:11;22.40;48.00
56268;DHT22;42175;46.930;9.532;2023-05-16T15:30:37;22.30;47.80
56268;DHT22;42175;46.930;9.532;2023-05-16T15:33:02;22.30;47.90
56268;DHT22;42175;46.930;9.532;2023-05-16T15:35:28;22.40;48.00
56268;DHT22;42175;46.930;9.532;2023-05-16T15:37:54;22.30;47.90
56268;DHT22;42175;46.930;9.532;2023-05-16T15:40:21;22.30;48.00
56268;DHT22;42175;46.930;9.532;2023-05-16T15:42:48;22.40;48.00
56268;DHT22;42175;46.930;9.532;2023-05-16T15:45:13;22.40;48.00
56268;DHT22;42175;46.930;9.532;2023-05-16T15:47:40;22.40;48.00
56268;DHT22;42175;46.930;9.532;2023-05-16T15:50:07;22.40;47.80
56268;DHT22;42175;46.930;9.532;2023-05-16T15:52:32;22.40;47.70
56268;DHT22;42175;46.930;9.532;2023-05-16T15:55:01;22.30;47.70
56268;DHT22;42175;46.930;9.532;2023-05-16T15:57:28;22.30;47.80